sensor_id;sensor_type;location;lat;lon;timestamp;pressure;altitude;pressure_sealevel;temperature
71564;BMP180;59391;52.504;13.438;2022-10-16T00:01:12;100748.00;;;19.60
71564;BMP180;59391;52.504;13.438;2022-10-16T00:03:39;100769.00;;;19.60
71564;BMP180;59391;52.504;13.438;2022-10-16T00:06:09;100765.00;;;19.60
71564;BMP180;59391;52.504;13.438;2022-10-16T00:08:36;100776.00;;;19.60
71564;BMP180;59391;52.504;13.438;2022-10-16T00:11:09;100777.00;;;19.60
71564;BMP180;59391;52.504;13.438;2022-10-16T00:13:37;100777.00;;;19.60
71564;BMP180;59391;52.504;13.438;2022-10-16T00:16:04;100774.00;;;19.70
71564;BMP180;59391;52.504;13.438;2022-10-16T00:18:31;100759.00;;;19.70
71564;BMP180;59391;52.504;13.438;2022-10-16T00:21:19;100782.00;;;19.70
71564;BMP180;59391;52.504;13.438;2022-10-16T00:23:45;100779.00;;;19.70
71564;BMP180;59391;52.504;13.438;2022-10-16T00:26:41;100772.00;;;19.70
71564;BMP180;59391;52.504;13.438;2022-10-16T00:29:09;100787.00;;;19.70
71564;BMP180;59391;52.504;13.438;2022-10-16T00:31:35;100793.00;;;19.80
71564;BMP180;59391;52.504;13.438;2022-10-16T00:34:04;100777.00;;;19.80
71564;BMP180;59391;52.504;13.438;2022-10-16T00:36:30;100797.00;;;19.80
71564;BMP180;59391;52.504;13.438;2022-10-16T00:38:59;100798.00;;;19.80
71564;BMP180;59391;52.504;13.438;2022-10-16T00:41:27;100801.00;;;19.90
71564;BMP180;59391;52.504;13.438;2022-10-16T00:43:58;100783.00;;;19.80
71564;BMP180;59391;52.504;13.438;2022-10-16T00:46:31;100778.00;;;19.80
71564;BMP180;59391;52.504;13.438;2022-10-16T00:49:15;100789.00;;;19.80
71564;BMP180;59391;52.504;13.438;2022-10-16T00:51:52;100784.00;;;19.80
71564;BMP180;59391;52.504;13.438;2022-10-16T00:54:26;100789.00;;;19.80
71564;BMP180;59391;52.504;13.438;2022-10-16T00:56:54;100795.00;;;19.80
71564;BMP180;59391;52.504;13.438;2022-10-16T00:59:27;100793.00;;;19.80
71564;BMP180;59391;52.504;13.438;2022-10-16T01:01:54;100801.00;;;19.80
71564;BMP180;59391;52.504;13.438;2022-10-16T01:04:20;100797.00;;;19.80
71564;BMP180;59391;52.504;13.438;2022-10-16T01:07:30;100808.00;;;19.70
71564;BMP180;59391;52.504;13.438;2022-10-16T01:12:46;100811.00;;;19.70
71564;BMP180;59391;52.504;13.438;2022-10-16T01:15:47;100798.00;;;19.80
71564;BMP180;59391;52.504;13.438;2022-10-16T01:18:26;100803.00;;;19.80
71564;BMP180;59391;52.504;13.438;2022-10-16T01:21:06;100801.00;;;19.80
71564;BMP180;59391;52.504;13.438;2022-10-16T01:23:51;100809.00;;;19.80
71564;BMP180;59391;52.504;13.438;2022-10-16T01:29:51;100821.00;;;19.80
71564;BMP180;59391;52.504;13.438;2022-10-16T01:32:30;100819.00;;;19.80
71564;BMP180;59391;52.504;13.438;2022-10-16T01:35:25;100818.00;;;19.70
71564;BMP180;59391;52.504;13.438;2022-10-16T01:38:16;100805.00;;;19.70
71564;BMP180;59391;52.504;13.438;2022-10-16T01:40:50;100829.00;;;19.70
71564;BMP180;59391;52.504;13.438;2022-10-16T01:43:30;100823.00;;;19.70
71564;BMP180;59391;52.504;13.438;2022-10-16T01:45:58;100826.00;;;19.70
71564;BMP180;59391;52.504;13.438;2022-10-16T01:48:24;100837.00;;;19.70
71564;BMP180;59391;52.504;13.438;2022-10-16T01:51:11;100819.00;;;19.70
71564;BMP180;59391;52.504;13.438;2022-10-16T01:53:39;100815.00;;;19.80
71564;BMP180;59391;52.504;13.438;2022-10-16T01:56:09;100832.00;;;19.80
71564;BMP180;59391;52.504;13.438;2022-10-16T01:58:45;100831.00;;;19.80
71564;BMP180;59391;52.504;13.438;2022-10-16T02:01:15;100843.00;;;19.70
71564;BMP180;59391;52.504;13.438;2022-10-16T02:03:44;100831.00;;;19.80
71564;BMP180;59391;52.504;13.438;2022-10-16T02:06:12;100848.00;;;19.80
71564;BMP180;59391;52.504;13.438;2022-10-16T02:08:38;100845.00;;;19.70
71564;BMP180;59391;52.504;13.438;2022-10-16T02:11:06;100843.00;;;19.80
71564;BMP180;59391;52.504;13.438;2022-10-16T02:13:53;100837.00;;;19.70
71564;BMP180;59391;52.504;13.438;2022-10-16T02:16:23;100863.00;;;19.80
71564;BMP180;59391;52.504;13.438;2022-10-16T02:18:57;100865.00;;;19.80
71564;BMP180;59391;52.504;13.438;2022-10-16T02:21:32;100856.00;;;19.80
71564;BMP180;59391;52.504;13.438;2022-10-16T02:24:19;100873.00;;;19.80
71564;BMP180;59391;52.504;13.438;2022-10-16T02:27:07;100866.00;;;19.80
71564;BMP180;59391;52.504;13.438;2022-10-16T02:29:42;100863.00;;;19.80
71564;BMP180;59391;52.504;13.438;2022-10-16T02:32:15;100859.00;;;19.80
71564;BMP180;59391;52.504;13.438;2022-10-16T02:34:42;100855.00;;;19.80
71564;BMP180;59391;52.504;13.438;2022-10-16T02:37:09;100860.00;;;19.80
71564;BMP180;59391;52.504;13.438;2022-10-16T02:39:36;100859.00;;;19.90
71564;BMP180;59391;52.504;13.438;2022-10-16T02:42:03;100866.00;;;19.90
71564;BMP180;59391;52.504;13.438;2022-10-16T02:44:28;100864.00;;;19.90
71564;BMP180;59391;52.504;13.438;2022-10-16T02:46:55;100860.00;;;19.90
71564;BMP180;59391;52.504;13.438;2022-10-16T02:49:20;100866.00;;;19.90
71564;BMP180;59391;52.504;13.438;2022-10-16T02:51:46;100872.00;;;19.70
71564;BMP180;59391;52.504;13.438;2022-10-16T02:54:12;100865.00;;;19.80
71564;BMP180;59391;52.504;13.438;2022-10-16T02:56:38;100869.00;;;19.90
71564;BMP180;59391;52.504;13.438;2022-10-16T02:59:04;100862.00;;;19.80
71564;BMP180;59391;52.504;13.438;2022-10-16T03:01:29;100876.00;;;19.90
71564;BMP180;59391;52.504;13.438;2022-10-16T03:03:55;100871.00;;;19.90
71564;BMP180;59391;52.504;13.438;2022-10-16T03:06:21;100861.00;;;19.90
71564;BMP180;59391;52.504;13.438;2022-10-16T03:08:46;100864.00;;;19.90
71564;BMP180;59391;52.504;13.438;2022-10-16T03:11:12;100869.00;;;19.90
71564;BMP180;59391;52.504;13.438;2022-10-16T03:13:38;100879.00;;;19.90
71564;BMP180;59391;52.504;13.438;2022-10-16T03:16:04;100887.00;;;19.90
71564;BMP180;59391;52.504;13.438;2022-10-16T03:18:29;100892.00;;;19.90
71564;BMP180;59391;52.504;13.438;2022-10-16T03:20:55;100884.00;;;19.80
71564;BMP180;59391;52.504;13.438;2022-10-16T03:23:20;100889.00;;;19.80
71564;BMP180;59391;52.504;13.438;2022-10-16T03:25:46;100897.00;;;19.90
71564;BMP180;59391;52.504;13.438;2022-10-16T03:28:12;100892.00;;;19.80
71564;BMP180;59391;52.504;13.438;2022-10-16T03:30:37;100895.00;;;19.80
71564;BMP180;59391;52.504;13.438;2022-10-16T03:33:05;100899.00;;;19.80
71564;BMP180;59391;52.504;13.438;2022-10-16T03:35:31;100911.00;;;19.80
71564;BMP180;59391;52.504;13.438;2022-10-16T03:37:57;100916.00;;;19.80
71564;BMP180;59391;52.504;13.438;2022-10-16T03:40:22;100907.00;;;19.80
71564;BMP180;59391;52.504;13.438;2022-10-16T03:42:48;100923.00;;;19.80
71564;BMP180;59391;52.504;13.438;2022-10-16T03:45:14;100922.00;;;19.80
71564;BMP180;59391;52.504;13.438;2022-10-16T03:47:39;100919.00;;;19.70
71564;BMP180;59391;52.504;13.438;2022-10-16T03:50:06;100921.00;;;19.60
71564;BMP180;59391;52.504;13.438;2022-10-16T03:52:32;100932.00;;;19.60
71564;BMP180;59391;52.504;13.438;2022-10-16T03:54:58;100933.00;;;19.60
71564;BMP180;59391;52.504;13.438;2022-10-16T03:57:24;100934.00;;;19.60
71564;BMP180;59391;52.504;13.438;2022-10-16T03:59:50;100932.00;;;19.60
71564;BMP180;59391;52.504;13.438;2022-10-16T04:02:16;100941.00;;;19.60
71564;BMP180;59391;52.504;13.438;2022-10-16T04:04:41;100941.00;;;19.60
71564;BMP180;59391;52.504;13.438;2022-10-16T04:07:07;100946.00;;;19.60
71564;BMP180;59391;52.504;13.438;2022-10-16T04:09:33;100951.00;;;19.50
71564;BMP180;59391;52.504;13.438;2022-10-16T04:11:58;100948.00;;;19.50
71564;BMP180;59391;52.504;13.438;2022-10-16T04:14:24;100960.00;;;19.50
71564;BMP180;59391;52.504;13.438;2022-10-16T04:16:50;100953.00;;;19.50
71564;BMP180;59391;52.504;13.438;2022-10-16T04:19:15;100934.00;;;19.40
71564;BMP180;59391;52.504;13.438;2022-10-16T04:21:41;100958.00;;;19.40
71564;BMP180;59391;52.504;13.438;2022-10-16T04:24:07;100962.00;;;19.40
71564;BMP180;59391;52.504;13.438;2022-10-16T04:26:32;100942.00;;;19.40
71564;BMP180;59391;52.504;13.438;2022-10-16T04:28:58;100947.00;;;19.30
71564;BMP180;59391;52.504;13.438;2022-10-16T04:31:24;100951.00;;;19.30
71564;BMP180;59391;52.504;13.438;2022-10-16T04:33:49;100947.00;;;19.30
71564;BMP180;59391;52.504;13.438;2022-10-16T04:36:15;100931.00;;;19.30
71564;BMP180;59391;52.504;13.438;2022-10-16T04:38:40;100946.00;;;19.30
71564;BMP180;59391;52.504;13.438;2022-10-16T04:41:07;100942.00;;;19.30
71564;BMP180;59391;52.504;13.438;2022-10-16T04:43:34;100945.00;;;19.30
71564;BMP180;59391;52.504;13.438;2022-10-16T04:45:59;100918.00;;;19.30
71564;BMP180;59391;52.504;13.438;2022-10-16T04:48:25;100938.00;;;19.30
71564;BMP180;59391;52.504;13.438;2022-10-16T04:50:51;100927.00;;;19.30
71564;BMP180;59391;52.504;13.438;2022-10-16T04:53:16;100948.00;;;19.30
71564;BMP180;59391;52.504;13.438;2022-10-16T04:55:43;100940.00;;;19.30
71564;BMP180;59391;52.504;13.438;2022-10-16T04:58:09;100938.00;;;19.30
71564;BMP180;59391;52.504;13.438;2022-10-16T05:00:35;100941.00;;;19.40
71564;BMP180;59391;52.504;13.438;2022-10-16T05:03:01;100945.00;;;19.40
71564;BMP180;59391;52.504;13.438;2022-10-16T05:05:31;100951.00;;;19.40
71564;BMP180;59391;52.504;13.438;2022-10-16T05:07:56;100966.00;;;19.40
71564;BMP180;59391;52.504;13.438;2022-10-16T05:10:22;100963.00;;;19.40
71564;BMP180;59391;52.504;13.438;2022-10-16T05:12:48;100980.00;;;19.40
71564;BMP180;59391;52.504;13.438;2022-10-16T05:15:14;100977.00;;;19.40
71564;BMP180;59391;52.504;13.438;2022-10-16T05:17:39;100975.00;;;19.40
71564;BMP180;59391;52.504;13.438;2022-10-16T05:20:06;100984.00;;;19.40
71564;BMP180;59391;52.504;13.438;2022-10-16T05:22:31;100981.00;;;19.40
71564;BMP180;59391;52.504;13.438;2022-10-16T05:24:57;100985.00;;;19.30
71564;BMP180;59391;52.504;13.438;2022-10-16T05:27:22;100957.00;;;19.30
71564;BMP180;59391;52.504;13.438;2022-10-16T05:29:48;100974.00;;;19.30
71564;BMP180;59391;52.504;13.438;2022-10-16T05:32:16;100969.00;;;19.30
71564;BMP180;59391;52.504;13.438;2022-10-16T05:34:42;100989.00;;;19.30
71564;BMP180;59391;52.504;13.438;2022-10-16T05:37:08;100982.00;;;19.30
71564;BMP180;59391;52.504;13.438;2022-10-16T05:39:34;100982.00;;;19.30
71564;BMP180;59391;52.504;13.438;2022-10-16T05:42:00;100983.00;;;19.30
71564;BMP180;59391;52.504;13.438;2022-10-16T05:44:25;100992.00;;;19.30
71564;BMP180;59391;52.504;13.438;2022-10-16T05:46:51;100975.00;;;19.20
71564;BMP180;59391;52.504;13.438;2022-10-16T05:49:16;100992.00;;;19.30
71564;BMP180;59391;52.504;13.438;2022-10-16T05:51:42;100997.00;;;19.30
71564;BMP180;59391;52.504;13.438;2022-10-16T05:54:08;101001.00;;;19.30
71564;BMP180;59391;52.504;13.438;2022-10-16T05:56:34;100994.00;;;19.30
71564;BMP180;59391;52.504;13.438;2022-10-16T05:58:59;100989.00;;;19.30
71564;BMP180;59391;52.504;13.438;2022-10-16T06:01:25;100999.00;;;19.30
71564;BMP180;59391;52.504;13.438;2022-10-16T06:03:52;100997.00;;;19.30
71564;BMP180;59391;52.504;13.438;2022-10-16T06:06:23;100990.00;;;19.30
71564;BMP180;59391;52.504;13.438;2022-10-16T06:08:51;100994.00;;;19.30
71564;BMP180;59391;52.504;13.438;2022-10-16T06:11:25;100996.00;;;19.30
71564;BMP180;59391;52.504;13.438;2022-10-16T06:13:53;100998.00;;;19.40
71564;BMP180;59391;52.504;13.438;2022-10-16T06:16:20;101000.00;;;19.40
71564;BMP180;59391;52.504;13.438;2022-10-16T06:18:46;101006.00;;;19.50
71564;BMP180;59391;52.504;13.438;2022-10-16T06:21:22;101015.00;;;19.50
71564;BMP180;59391;52.504;13.438;2022-10-16T06:23:50;101020.00;;;19.50
71564;BMP180;59391;52.504;13.438;2022-10-16T06:26:20;101008.00;;;19.60
71564;BMP180;59391;52.504;13.438;2022-10-16T06:28:47;101006.00;;;19.60
71564;BMP180;59391;52.504;13.438;2022-10-16T06:31:13;101008.00;;;19.60
71564;BMP180;59391;52.504;13.438;2022-10-16T06:33:40;101007.00;;;19.60
71564;BMP180;59391;52.504;13.438;2022-10-16T06:36:15;101020.00;;;19.60
71564;BMP180;59391;52.504;13.438;2022-10-16T06:38:43;101029.00;;;19.60
71564;BMP180;59391;52.504;13.438;2022-10-16T06:41:13;101028.00;;;19.60
71564;BMP180;59391;52.504;13.438;2022-10-16T06:43:39;101034.00;;;19.60
71564;BMP180;59391;52.504;13.438;2022-10-16T06:46:08;101043.00;;;19.70
71564;BMP180;59391;52.504;13.438;2022-10-16T06:48:35;101043.00;;;19.70
71564;BMP180;59391;52.504;13.438;2022-10-16T06:51:13;101048.00;;;19.70
71564;BMP180;59391;52.504;13.438;2022-10-16T06:53:44;101049.00;;;19.80
71564;BMP180;59391;52.504;13.438;2022-10-16T06:56:17;101052.00;;;19.80
71564;BMP180;59391;52.504;13.438;2022-10-16T06:58:43;101055.00;;;19.80
71564;BMP180;59391;52.504;13.438;2022-10-16T07:01:11;101052.00;;;19.80
71564;BMP180;59391;52.504;13.438;2022-10-16T07:03:41;101058.00;;;19.80
71564;BMP180;59391;52.504;13.438;2022-10-16T07:06:10;101069.00;;;19.90
71564;BMP180;59391;52.504;13.438;2022-10-16T07:08:39;101062.00;;;19.90
71564;BMP180;59391;52.504;13.438;2022-10-16T07:11:09;101064.00;;;20.00
71564;BMP180;59391;52.504;13.438;2022-10-16T07:13:40;101070.00;;;20.10
71564;BMP180;59391;52.504;13.438;2022-10-16T07:16:14;101077.00;;;20.30
71564;BMP180;59391;52.504;13.438;2022-10-16T07:18:42;101083.00;;;20.30
71564;BMP180;59391;52.504;13.438;2022-10-16T07:21:15;101080.00;;;20.30
71564;BMP180;59391;52.504;13.438;2022-10-16T07:23:42;101085.00;;;20.40
71564;BMP180;59391;52.504;13.438;2022-10-16T07:26:08;101064.00;;;20.40
71564;BMP180;59391;52.504;13.438;2022-10-16T07:28:34;101070.00;;;20.60
71564;BMP180;59391;52.504;13.438;2022-10-16T07:31:08;101081.00;;;20.60
71564;BMP180;59391;52.504;13.438;2022-10-16T07:33:36;101088.00;;;20.70
71564;BMP180;59391;52.504;13.438;2022-10-16T07:36:02;101070.00;;;20.70
71564;BMP180;59391;52.504;13.438;2022-10-16T07:38:28;101075.00;;;20.60
71564;BMP180;59391;52.504;13.438;2022-10-16T07:44:24;101085.00;;;20.60
71564;BMP180;59391;52.504;13.438;2022-10-16T07:46:52;101081.00;;;20.70
71564;BMP180;59391;52.504;13.438;2022-10-16T07:49:20;101045.00;;;20.80
71564;BMP180;59391;52.504;13.438;2022-10-16T07:51:46;101024.00;;;20.80
71564;BMP180;59391;52.504;13.438;2022-10-16T07:54:12;101088.00;;;20.90
71564;BMP180;59391;52.504;13.438;2022-10-16T07:56:38;101095.00;;;20.90
71564;BMP180;59391;52.504;13.438;2022-10-16T07:59:13;101081.00;;;21.00
71564;BMP180;59391;52.504;13.438;2022-10-16T08:01:39;101073.00;;;20.90
71564;BMP180;59391;52.504;13.438;2022-10-16T08:04:08;101079.00;;;21.00
71564;BMP180;59391;52.504;13.438;2022-10-16T08:06:40;101103.00;;;20.90
71564;BMP180;59391;52.504;13.438;2022-10-16T08:09:10;101088.00;;;21.00
71564;BMP180;59391;52.504;13.438;2022-10-16T08:11:35;101117.00;;;20.90
71564;BMP180;59391;52.504;13.438;2022-10-16T08:14:04;101127.00;;;21.00
71564;BMP180;59391;52.504;13.438;2022-10-16T08:16:29;101142.00;;;20.90
71564;BMP180;59391;52.504;13.438;2022-10-16T08:18:55;101132.00;;;20.90
71564;BMP180;59391;52.504;13.438;2022-10-16T08:21:22;101125.00;;;21.00
71564;BMP180;59391;52.504;13.438;2022-10-16T08:23:50;101103.00;;;20.90
71564;BMP180;59391;52.504;13.438;2022-10-16T08:26:16;101121.00;;;20.80
71564;BMP180;59391;52.504;13.438;2022-10-16T08:28:50;101105.00;;;21.10
71564;BMP180;59391;52.504;13.438;2022-10-16T08:31:16;101113.00;;;21.20
71564;BMP180;59391;52.504;13.438;2022-10-16T08:33:45;101124.00;;;21.10
71564;BMP180;59391;52.504;13.438;2022-10-16T08:36:13;101132.00;;;21.10
71564;BMP180;59391;52.504;13.438;2022-10-16T08:38:39;101135.00;;;21.10
71564;BMP180;59391;52.504;13.438;2022-10-16T08:44:46;101131.00;;;21.20
71564;BMP180;59391;52.504;13.438;2022-10-16T08:50:43;101123.00;;;21.20
71564;BMP180;59391;52.504;13.438;2022-10-16T08:53:19;101134.00;;;21.20
71564;BMP180;59391;52.504;13.438;2022-10-16T08:55:51;101120.00;;;21.20
71564;BMP180;59391;52.504;13.438;2022-10-16T08:58:29;101139.00;;;21.30
71564;BMP180;59391;52.504;13.438;2022-10-16T09:01:03;101120.00;;;21.30
71564;BMP180;59391;52.504;13.438;2022-10-16T09:06:56;101152.00;;;21.10
71564;BMP180;59391;52.504;13.438;2022-10-16T09:12:36;101159.00;;;21.50
71564;BMP180;59391;52.504;13.438;2022-10-16T09:15:24;101163.00;;;21.80
71564;BMP180;59391;52.504;13.438;2022-10-16T09:21:06;101173.00;;;22.00
71564;BMP180;59391;52.504;13.438;2022-10-16T09:23:37;101162.00;;;22.10
71564;BMP180;59391;52.504;13.438;2022-10-16T09:26:12;101180.00;;;22.00
71564;BMP180;59391;52.504;13.438;2022-10-16T09:28:39;101157.00;;;22.00
71564;BMP180;59391;52.504;13.438;2022-10-16T09:31:05;101146.00;;;22.20
71564;BMP180;59391;52.504;13.438;2022-10-16T09:33:38;101159.00;;;22.50
71564;BMP180;59391;52.504;13.438;2022-10-16T09:36:10;101166.00;;;22.70
71564;BMP180;59391;52.504;13.438;2022-10-16T09:38:37;101135.00;;;22.80
71564;BMP180;59391;52.504;13.438;2022-10-16T09:41:20;101175.00;;;22.60
71564;BMP180;59391;52.504;13.438;2022-10-16T09:43:53;101174.00;;;22.60
71564;BMP180;59391;52.504;13.438;2022-10-16T09:46:35;101179.00;;;22.90
71564;BMP180;59391;52.504;13.438;2022-10-16T09:49:05;101182.00;;;23.10
71564;BMP180;59391;52.504;13.438;2022-10-16T09:51:43;101185.00;;;23.40
71564;BMP180;59391;52.504;13.438;2022-10-16T09:56:37;101198.00;;;23.30
71564;BMP180;59391;52.504;13.438;2022-10-16T09:59:22;101195.00;;;23.20
71564;BMP180;59391;52.504;13.438;2022-10-16T10:02:00;101201.00;;;23.30
71564;BMP180;59391;52.504;13.438;2022-10-16T10:04:54;101186.00;;;23.70
71564;BMP180;59391;52.504;13.438;2022-10-16T10:07:45;101208.00;;;24.10
71564;BMP180;59391;52.504;13.438;2022-10-16T10:10:24;101179.00;;;24.50
71564;BMP180;59391;52.504;13.438;2022-10-16T10:12:50;101215.00;;;24.40
71564;BMP180;59391;52.504;13.438;2022-10-16T10:15:19;101221.00;;;24.30
71564;BMP180;59391;52.504;13.438;2022-10-16T10:18:21;101213.00;;;24.10
71564;BMP180;59391;52.504;13.438;2022-10-16T10:20:59;101199.00;;;24.10
71564;BMP180;59391;52.504;13.438;2022-10-16T10:23:28;101201.00;;;24.10
71564;BMP180;59391;52.504;13.438;2022-10-16T10:35:07;101230.00;;;23.60
71564;BMP180;59391;52.504;13.438;2022-10-16T10:41:00;101215.00;;;23.80
71564;BMP180;59391;52.504;13.438;2022-10-16T10:44:17;101238.00;;;24.10
71564;BMP180;59391;52.504;13.438;2022-10-16T10:46:58;101240.00;;;24.50
71564;BMP180;59391;52.504;13.438;2022-10-16T10:49:55;101229.00;;;24.90
71564;BMP180;59391;52.504;13.438;2022-10-16T10:55:45;101247.00;;;25.00
71564;BMP180;59391;52.504;13.438;2022-10-16T10:58:50;101241.00;;;24.90
71564;BMP180;59391;52.504;13.438;2022-10-16T11:01:47;101237.00;;;24.80
71564;BMP180;59391;52.504;13.438;2022-10-16T11:04:46;101236.00;;;25.00
71564;BMP180;59391;52.504;13.438;2022-10-16T11:07:27;101218.00;;;25.30
71564;BMP180;59391;52.504;13.438;2022-10-16T11:10:23;101192.00;;;26.10
71564;BMP180;59391;52.504;13.438;2022-10-16T11:13:17;101251.00;;;26.80
71564;BMP180;59391;52.504;13.438;2022-10-16T11:15:47;101261.00;;;27.00
71564;BMP180;59391;52.504;13.438;2022-10-16T11:18:32;101239.00;;;27.00
71564;BMP180;59391;52.504;13.438;2022-10-16T11:21:12;101255.00;;;26.90
71564;BMP180;59391;52.504;13.438;2022-10-16T11:24:19;101248.00;;;26.70
71564;BMP180;59391;52.504;13.438;2022-10-16T11:26:52;101249.00;;;26.50
71564;BMP180;59391;52.504;13.438;2022-10-16T11:29:29;101220.00;;;26.30
71564;BMP180;59391;52.504;13.438;2022-10-16T11:32:25;101228.00;;;26.30
71564;BMP180;59391;52.504;13.438;2022-10-16T11:35:03;101245.00;;;26.40
71564;BMP180;59391;52.504;13.438;2022-10-16T11:37:42;101235.00;;;26.70
71564;BMP180;59391;52.504;13.438;2022-10-16T11:40:41;101267.00;;;26.70
71564;BMP180;59391;52.504;13.438;2022-10-16T11:43:22;101234.00;;;26.90
71564;BMP180;59391;52.504;13.438;2022-10-16T11:45:54;101241.00;;;27.00
71564;BMP180;59391;52.504;13.438;2022-10-16T11:48:36;101240.00;;;26.90
71564;BMP180;59391;52.504;13.438;2022-10-16T11:51:39;101232.00;;;26.70
71564;BMP180;59391;52.504;13.438;2022-10-16T11:54:22;101241.00;;;26.60
71564;BMP180;59391;52.504;13.438;2022-10-16T11:56:58;101233.00;;;26.60
71564;BMP180;59391;52.504;13.438;2022-10-16T12:03:17;101258.00;;;26.10
71564;BMP180;59391;52.504;13.438;2022-10-16T12:06:32;101262.00;;;25.90
71564;BMP180;59391;52.504;13.438;2022-10-16T12:09:01;101260.00;;;25.90
71564;BMP180;59391;52.504;13.438;2022-10-16T12:14:07;101277.00;;;25.90
71564;BMP180;59391;52.504;13.438;2022-10-16T12:17:03;101270.00;;;25.90
71564;BMP180;59391;52.504;13.438;2022-10-16T12:19:32;101274.00;;;26.10
71564;BMP180;59391;52.504;13.438;2022-10-16T12:22:00;101239.00;;;26.20
71564;BMP180;59391;52.504;13.438;2022-10-16T12:24:44;101284.00;;;26.50
71564;BMP180;59391;52.504;13.438;2022-10-16T12:27:30;101266.00;;;26.50
71564;BMP180;59391;52.504;13.438;2022-10-16T12:30:02;101271.00;;;26.50
71564;BMP180;59391;52.504;13.438;2022-10-16T12:32:37;101280.00;;;26.40
71564;BMP180;59391;52.504;13.438;2022-10-16T12:35:18;101276.00;;;26.20
71564;BMP180;59391;52.504;13.438;2022-10-16T12:41:29;101304.00;;;26.00
71564;BMP180;59391;52.504;13.438;2022-10-16T12:43:55;101265.00;;;26.10
71564;BMP180;59391;52.504;13.438;2022-10-16T12:46:37;101279.00;;;26.00
71564;BMP180;59391;52.504;13.438;2022-10-16T12:51:37;101296.00;;;26.40
71564;BMP180;59391;52.504;13.438;2022-10-16T12:54:17;101292.00;;;26.40
71564;BMP180;59391;52.504;13.438;2022-10-16T12:57:19;101301.00;;;26.50
71564;BMP180;59391;52.504;13.438;2022-10-16T13:03:32;101306.00;;;26.70
71564;BMP180;59391;52.504;13.438;2022-10-16T13:06:13;101306.00;;;27.00
71564;BMP180;59391;52.504;13.438;2022-10-16T13:09:16;101294.00;;;27.10
71564;BMP180;59391;52.504;13.438;2022-10-16T13:12:06;101316.00;;;27.20
71564;BMP180;59391;52.504;13.438;2022-10-16T13:15:07;101313.00;;;27.50
71564;BMP180;59391;52.504;13.438;2022-10-16T13:20:41;101313.00;;;28.00
71564;BMP180;59391;52.504;13.438;2022-10-16T13:23:37;101327.00;;;27.90
71564;BMP180;59391;52.504;13.438;2022-10-16T13:28:45;101335.00;;;27.40
71564;BMP180;59391;52.504;13.438;2022-10-16T13:31:28;101339.00;;;27.20
71564;BMP180;59391;52.504;13.438;2022-10-16T13:33:58;101347.00;;;27.20
71564;BMP180;59391;52.504;13.438;2022-10-16T13:36:33;101336.00;;;27.20
71564;BMP180;59391;52.504;13.438;2022-10-16T13:39:12;101349.00;;;27.50
71564;BMP180;59391;52.504;13.438;2022-10-16T13:41:38;101350.00;;;27.60
71564;BMP180;59391;52.504;13.438;2022-10-16T13:44:05;101334.00;;;27.60
71564;BMP180;59391;52.504;13.438;2022-10-16T13:46:30;101358.00;;;27.60
71564;BMP180;59391;52.504;13.438;2022-10-16T13:49:17;101350.00;;;27.70
71564;BMP180;59391;52.504;13.438;2022-10-16T13:52:01;101345.00;;;27.60
71564;BMP180;59391;52.504;13.438;2022-10-16T13:54:28;101346.00;;;27.40
71564;BMP180;59391;52.504;13.438;2022-10-16T13:56:56;101341.00;;;27.20
71564;BMP180;59391;52.504;13.438;2022-10-16T13:59:32;101355.00;;;27.20
71564;BMP180;59391;52.504;13.438;2022-10-16T14:02:00;101349.00;;;27.20
71564;BMP180;59391;52.504;13.438;2022-10-16T14:04:33;101363.00;;;27.00
71564;BMP180;59391;52.504;13.438;2022-10-16T14:06:58;101346.00;;;26.80
71564;BMP180;59391;52.504;13.438;2022-10-16T14:09:28;101363.00;;;26.60
71564;BMP180;59391;52.504;13.438;2022-10-16T14:12:02;101364.00;;;26.50
71564;BMP180;59391;52.504;13.438;2022-10-16T14:14:40;101364.00;;;26.40
71564;BMP180;59391;52.504;13.438;2022-10-16T14:17:25;101368.00;;;26.20
71564;BMP180;59391;52.504;13.438;2022-10-16T14:19:55;101349.00;;;26.20
71564;BMP180;59391;52.504;13.438;2022-10-16T14:22:38;101384.00;;;26.20
71564;BMP180;59391;52.504;13.438;2022-10-16T14:28:15;101383.00;;;26.00
71564;BMP180;59391;52.504;13.438;2022-10-16T14:31:00;101365.00;;;25.90
71564;BMP180;59391;52.504;13.438;2022-10-16T14:38:38;101377.00;;;25.60
71564;BMP180;59391;52.504;13.438;2022-10-16T14:41:05;101346.00;;;25.40
71564;BMP180;59391;52.504;13.438;2022-10-16T14:43:40;101342.00;;;25.40
71564;BMP180;59391;52.504;13.438;2022-10-16T14:46:14;101377.00;;;25.40
71564;BMP180;59391;52.504;13.438;2022-10-16T14:48:50;101388.00;;;25.40
71564;BMP180;59391;52.504;13.438;2022-10-16T14:51:18;101384.00;;;25.40
71564;BMP180;59391;52.504;13.438;2022-10-16T14:53:46;101381.00;;;25.30
71564;BMP180;59391;52.504;13.438;2022-10-16T14:56:30;101381.00;;;25.10
71564;BMP180;59391;52.504;13.438;2022-10-16T14:58:58;101368.00;;;25.10
71564;BMP180;59391;52.504;13.438;2022-10-16T15:01:24;101391.00;;;24.90
71564;BMP180;59391;52.504;13.438;2022-10-16T15:03:50;101349.00;;;24.90
71564;BMP180;59391;52.504;13.438;2022-10-16T15:06:18;101391.00;;;24.70
71564;BMP180;59391;52.504;13.438;2022-10-16T15:08:43;101381.00;;;24.50
71564;BMP180;59391;52.504;13.438;2022-10-16T15:11:14;101398.00;;;24.60
71564;BMP180;59391;52.504;13.438;2022-10-16T15:13:41;101403.00;;;24.60
71564;BMP180;59391;52.504;13.438;2022-10-16T15:16:16;101383.00;;;24.50
71564;BMP180;59391;52.504;13.438;2022-10-16T15:18:43;101371.00;;;24.40
71564;BMP180;59391;52.504;13.438;2022-10-16T15:21:32;101400.00;;;24.40
71564;BMP180;59391;52.504;13.438;2022-10-16T15:23:59;101389.00;;;24.40
71564;BMP180;59391;52.504;13.438;2022-10-16T15:26:29;101396.00;;;24.30
71564;BMP180;59391;52.504;13.438;2022-10-16T15:28:55;101411.00;;;24.30